sensor_id;sensor_type;location;lat;lon;timestamp;temperature;humidity
4518;DHT22;2271;49.464;11.070;2023-01-08T00:01:57;6.90;99.90
4518;DHT22;2271;49.464;11.070;2023-01-08T00:04:22;6.90;99.90
4518;DHT22;2271;49.464;11.070;2023-01-08T00:06:48;6.80;99.90
4518;DHT22;2271;49.464;11.070;2023-01-08T00:09:13;6.70;99.90
4518;DHT22;2271;49.464;11.070;2023-01-08T00:11:39;6.80;99.90
4518;DHT22;2271;49.464;11.070;2023-01-08T00:14:05;6.80;99.90
4518;DHT22;2271;49.464;11.070;2023-01-08T00:16:31;6.90;99.90
4518;DHT22;2271;49.464;11.070;2023-01-08T00:18:56;6.80;99.90
4518;DHT22;2271;49.464;11.070;2023-01-08T00:21:22;6.70;99.90
4518;DHT22;2271;49.464;11.070;2023-01-08T00:23:48;6.70;99.90
4518;DHT22;2271;49.464;11.070;2023-01-08T00:26:14;6.80;99.90
4518;DHT22;2271;49.464;11.070;2023-01-08T00:28:40;6.70;99.90
4518;DHT22;2271;49.464;11.070;2023-01-08T00:31:07;6.80;99.90
4518;DHT22;2271;49.464;11.070;2023-01-08T00:33:33;6.80;99.90
4518;DHT22;2271;49.464;11.070;2023-01-08T00:35:59;6.70;99.90
4518;DHT22;2271;49.464;11.070;2023-01-08T00:38:28;6.70;99.90
4518;DHT22;2271;49.464;11.070;2023-01-08T00:40:54;6.80;99.90
4518;DHT22;2271;49.464;11.070;2023-01-08T00:43:20;6.80;99.90
4518;DHT22;2271;49.464;11.070;2023-01-08T00:45:46;6.80;99.90
4518;DHT22;2271;49.464;11.070;2023-01-08T00:48:11;6.70;99.90
4518;DHT22;2271;49.464;11.070;2023-01-08T00:50:37;6.70;99.90
4518;DHT22;2271;49.464;11.070;2023-01-08T00:53:03;6.70;99.90
4518;DHT22;2271;49.464;11.070;2023-01-08T00:55:29;6.80;99.90
4518;DHT22;2271;49.464;11.070;2023-01-08T00:57:54;6.80;99.90
4518;DHT22;2271;49.464;11.070;2023-01-08T01:00:22;6.80;99.90
4518;DHT22;2271;49.464;11.070;2023-01-08T01:02:48;6.90;99.90
4518;DHT22;2271;49.464;11.070;2023-01-08T01:05:14;6.80;99.90
4518;DHT22;2271;49.464;11.070;2023-01-08T01:07:44;6.90;99.90
4518;DHT22;2271;49.464;11.070;2023-01-08T01:10:12;6.90;99.90
4518;DHT22;2271;49.464;11.070;2023-01-08T01:12:38;6.90;99.90
4518;DHT22;2271;49.464;11.070;2023-01-08T01:15:06;7.00;99.90
4518;DHT22;2271;49.464;11.070;2023-01-08T01:17:32;7.00;99.90
4518;DHT22;2271;49.464;11.070;2023-01-08T01:19:57;7.00;99.90
4518;DHT22;2271;49.464;11.070;2023-01-08T01:22:23;7.10;99.90
4518;DHT22;2271;49.464;11.070;2023-01-08T01:24:49;7.10;99.90
4518;DHT22;2271;49.464;11.070;2023-01-08T01:27:14;7.20;99.90
4518;DHT22;2271;49.464;11.070;2023-01-08T01:29:40;7.10;99.90
4518;DHT22;2271;49.464;11.070;2023-01-08T01:32:05;7.10;99.90
4518;DHT22;2271;49.464;11.070;2023-01-08T01:34:31;7.10;99.90
4518;DHT22;2271;49.464;11.070;2023-01-08T01:36:57;7.00;99.90
4518;DHT22;2271;49.464;11.070;2023-01-08T01:39:22;7.00;99.90
4518;DHT22;2271;49.464;11.070;2023-01-08T01:41:48;7.00;99.90
4518;DHT22;2271;49.464;11.070;2023-01-08T01:46:59;6.90;99.90
4518;DHT22;2271;49.464;11.070;2023-01-08T01:49:25;6.80;99.90
4518;DHT22;2271;49.464;11.070;2023-01-08T01:51:55;6.80;99.90
4518;DHT22;2271;49.464;11.070;2023-01-08T01:54:21;6.80;99.90
4518;DHT22;2271;49.464;11.070;2023-01-08T01:56:48;6.70;99.90
4518;DHT22;2271;49.464;11.070;2023-01-08T01:59:14;6.70;99.90
4518;DHT22;2271;49.464;11.070;2023-01-08T02:01:41;6.70;99.90
4518;DHT22;2271;49.464;11.070;2023-01-08T02:04:10;6.70;99.90
4518;DHT22;2271;49.464;11.070;2023-01-08T02:06:59;6.60;99.90
4518;DHT22;2271;49.464;11.070;2023-01-08T02:17:42;6.20;99.90
4518;DHT22;2271;49.464;11.070;2023-01-08T02:20:14;6.20;99.90
4518;DHT22;2271;49.464;11.070;2023-01-08T02:23:29;6.20;99.90
4518;DHT22;2271;49.464;11.070;2023-01-08T02:26:09;6.20;99.90
4518;DHT22;2271;49.464;11.070;2023-01-08T02:31:31;6.20;99.90
4518;DHT22;2271;49.464;11.070;2023-01-08T02:33:57;6.20;99.90
4518;DHT22;2271;49.464;11.070;2023-01-08T02:36:28;6.20;99.90
4518;DHT22;2271;49.464;11.070;2023-01-08T02:39:15;6.30;99.90
4518;DHT22;2271;49.464;11.070;2023-01-08T02:45:58;6.30;99.90
4518;DHT22;2271;49.464;11.070;2023-01-08T02:47:53;6.30;99.90
4518;DHT22;2271;49.464;11.070;2023-01-08T02:50:36;6.30;99.90
4518;DHT22;2271;49.464;11.070;2023-01-08T02:55:36;6.40;99.90
4518;DHT22;2271;49.464;11.070;2023-01-08T02:58:03;6.40;99.90
4518;DHT22;2271;49.464;11.070;2023-01-08T03:00:30;6.40;99.90
4518;DHT22;2271;49.464;11.070;2023-01-08T03:03:10;6.50;99.90
4518;DHT22;2271;49.464;11.070;2023-01-08T03:05:39;6.50;99.90
4518;DHT22;2271;49.464;11.070;2023-01-08T03:08:06;6.60;99.90
4518;DHT22;2271;49.464;11.070;2023-01-08T03:10:32;6.60;99.90
4518;DHT22;2271;49.464;11.070;2023-01-08T03:13:04;6.60;99.90
4518;DHT22;2271;49.464;11.070;2023-01-08T03:15:42;6.60;99.90
4518;DHT22;2271;49.464;11.070;2023-01-08T03:18:12;6.60;99.90
4518;DHT22;2271;49.464;11.070;2023-01-08T03:20:39;6.60;99.90
4518;DHT22;2271;49.464;11.070;2023-01-08T03:23:08;6.70;99.90
4518;DHT22;2271;49.464;11.070;2023-01-08T03:25:38;6.70;99.90
4518;DHT22;2271;49.464;11.070;2023-01-08T03:28:10;6.80;99.90
4518;DHT22;2271;49.464;11.070;2023-01-08T03:30:39;6.70;99.90
4518;DHT22;2271;49.464;11.070;2023-01-08T03:33:06;6.70;99.90
4518;DHT22;2271;49.464;11.070;2023-01-08T03:35:35;6.80;99.90
4518;DHT22;2271;49.464;11.070;2023-01-08T03:38:07;6.70;99.90
4518;DHT22;2271;49.464;11.070;2023-01-08T03:40:39;6.70;99.90
4518;DHT22;2271;49.464;11.070;2023-01-08T03:43:07;6.70;99.90
4518;DHT22;2271;49.464;11.070;2023-01-08T03:45:36;6.60;99.90
4518;DHT22;2271;49.464;11.070;2023-01-08T03:48:03;6.60;99.90
4518;DHT22;2271;49.464;11.070;2023-01-08T03:50:30;6.50;99.90
4518;DHT22;2271;49.464;11.070;2023-01-08T03:52:57;6.40;99.90
4518;DHT22;2271;49.464;11.070;2023-01-08T03:55:22;6.40;99.90
4518;DHT22;2271;49.464;11.070;2023-01-08T03:57:48;6.40;99.90
4518;DHT22;2271;49.464;11.070;2023-01-08T04:00:14;6.30;99.90
4518;DHT22;2271;49.464;11.070;2023-01-08T04:02:40;6.20;99.90
4518;DHT22;2271;49.464;11.070;2023-01-08T04:05:09;6.20;99.90
4518;DHT22;2271;49.464;11.070;2023-01-08T04:07:35;6.10;99.90
4518;DHT22;2271;49.464;11.070;2023-01-08T04:10:01;6.10;99.90
4518;DHT22;2271;49.464;11.070;2023-01-08T04:12:27;6.00;99.90
4518;DHT22;2271;49.464;11.070;2023-01-08T04:14:53;6.00;99.90
4518;DHT22;2271;49.464;11.070;2023-01-08T04:17:18;6.00;99.90
4518;DHT22;2271;49.464;11.070;2023-01-08T04:19:44;6.00;99.90
4518;DHT22;2271;49.464;11.070;2023-01-08T04:22:10;6.00;99.90
4518;DHT22;2271;49.464;11.070;2023-01-08T04:24:36;6.00;99.90
4518;DHT22;2271;49.464;11.070;2023-01-08T04:27:01;6.00;99.90
4518;DHT22;2271;49.464;11.070;2023-01-08T04:29:27;6.10;99.90
4518;DHT22;2271;49.464;11.070;2023-01-08T04:31:52;6.10;99.90
4518;DHT22;2271;49.464;11.070;2023-01-08T04:34:18;6.20;99.90
4518;DHT22;2271;49.464;11.070;2023-01-08T04:36:44;6.20;99.90
4518;DHT22;2271;49.464;11.070;2023-01-08T04:39:10;6.30;99.90
4518;DHT22;2271;49.464;11.070;2023-01-08T04:41:35;6.30;99.90
4518;DHT22;2271;49.464;11.070;2023-01-08T04:44:01;6.40;99.90
4518;DHT22;2271;49.464;11.070;2023-01-08T04:46:27;6.40;99.90
4518;DHT22;2271;49.464;11.070;2023-01-08T04:48:53;6.40;99.90
4518;DHT22;2271;49.464;11.070;2023-01-08T04:51:18;6.50;99.90
4518;DHT22;2271;49.464;11.070;2023-01-08T04:53:44;6.40;99.90
4518;DHT22;2271;49.464;11.070;2023-01-08T04:56:11;6.40;99.90
4518;DHT22;2271;49.464;11.070;2023-01-08T04:58:37;6.30;99.90
4518;DHT22;2271;49.464;11.070;2023-01-08T05:01:18;6.30;99.90
4518;DHT22;2271;49.464;11.070;2023-01-08T05:03:44;6.40;99.90
4518;DHT22;2271;49.464;11.070;2023-01-08T05:06:09;6.40;99.90
4518;DHT22;2271;49.464;11.070;2023-01-08T05:08:35;6.40;99.90
4518;DHT22;2271;49.464;11.070;2023-01-08T05:11:01;6.30;99.90
4518;DHT22;2271;49.464;11.070;2023-01-08T05:13:27;6.20;99.90
4518;DHT22;2271;49.464;11.070;2023-01-08T05:15:57;6.20;99.90
4518;DHT22;2271;49.464;11.070;2023-01-08T05:18:22;6.10;99.90
4518;DHT22;2271;49.464;11.070;2023-01-08T05:20:48;6.00;99.90
4518;DHT22;2271;49.464;11.070;2023-01-08T05:23:14;6.00;99.90
4518;DHT22;2271;49.464;11.070;2023-01-08T05:25:39;5.90;99.90
4518;DHT22;2271;49.464;11.070;2023-01-08T05:28:05;5.90;99.90
4518;DHT22;2271;49.464;11.070;2023-01-08T05:30:30;6.00;99.90
4518;DHT22;2271;49.464;11.070;2023-01-08T05:32:56;6.00;99.90
4518;DHT22;2271;49.464;11.070;2023-01-08T05:35:22;6.00;99.90
4518;DHT22;2271;49.464;11.070;2023-01-08T05:37:47;6.00;99.90
4518;DHT22;2271;49.464;11.070;2023-01-08T05:40:13;6.00;99.90
4518;DHT22;2271;49.464;11.070;2023-01-08T05:42:39;6.10;99.90
4518;DHT22;2271;49.464;11.070;2023-01-08T05:45:06;6.10;99.90
4518;DHT22;2271;49.464;11.070;2023-01-08T05:47:33;6.00;99.90
4518;DHT22;2271;49.464;11.070;2023-01-08T05:49:59;5.90;99.90
4518;DHT22;2271;49.464;11.070;2023-01-08T05:52:25;6.00;99.90
4518;DHT22;2271;49.464;11.070;2023-01-08T05:54:51;6.10;99.90
4518;DHT22;2271;49.464;11.070;2023-01-08T05:57:17;6.00;99.90
4518;DHT22;2271;49.464;11.070;2023-01-08T05:59:42;6.00;99.90
4518;DHT22;2271;49.464;11.070;2023-01-08T06:02:08;6.10;99.90
4518;DHT22;2271;49.464;11.070;2023-01-08T06:04:34;6.10;99.90
4518;DHT22;2271;49.464;11.070;2023-01-08T06:06:59;6.10;99.90
4518;DHT22;2271;49.464;11.070;2023-01-08T06:09:25;6.10;99.90
4518;DHT22;2271;49.464;11.070;2023-01-08T06:11:51;6.20;99.90
4518;DHT22;2271;49.464;11.070;2023-01-08T06:14:17;6.20;99.90
4518;DHT22;2271;49.464;11.070;2023-01-08T06:16:43;6.20;99.90
4518;DHT22;2271;49.464;11.070;2023-01-08T06:19:10;6.20;99.90
4518;DHT22;2271;49.464;11.070;2023-01-08T06:21:35;6.20;99.90
4518;DHT22;2271;49.464;11.070;2023-01-08T06:24:01;6.20;99.90
4518;DHT22;2271;49.464;11.070;2023-01-08T06:26:27;6.20;99.90
4518;DHT22;2271;49.464;11.070;2023-01-08T06:28:52;6.20;99.90
4518;DHT22;2271;49.464;11.070;2023-01-08T06:31:18;6.30;99.90
4518;DHT22;2271;49.464;11.070;2023-01-08T06:33:43;6.30;99.90
4518;DHT22;2271;49.464;11.070;2023-01-08T06:36:09;6.20;99.90
4518;DHT22;2271;49.464;11.070;2023-01-08T06:38:36;6.20;99.90
4518;DHT22;2271;49.464;11.070;2023-01-08T06:41:05;6.20;99.90
4518;DHT22;2271;49.464;11.070;2023-01-08T06:43:33;6.10;99.90
4518;DHT22;2271;49.464;11.070;2023-01-08T06:45:59;6.10;99.90
4518;DHT22;2271;49.464;11.070;2023-01-08T06:48:25;6.20;99.90
4518;DHT22;2271;49.464;11.070;2023-01-08T06:50:51;6.20;99.90
4518;DHT22;2271;49.464;11.070;2023-01-08T06:53:16;6.20;99.90
4518;DHT22;2271;49.464;11.070;2023-01-08T06:55:42;6.20;99.90
4518;DHT22;2271;49.464;11.070;2023-01-08T06:58:09;6.20;99.90
4518;DHT22;2271;49.464;11.070;2023-01-08T07:00:37;6.20;99.90
4518;DHT22;2271;49.464;11.070;2023-01-08T07:03:03;6.20;99.90
4518;DHT22;2271;49.464;11.070;2023-01-08T07:05:28;6.20;99.90
4518;DHT22;2271;49.464;11.070;2023-01-08T07:07:54;6.20;99.90
4518;DHT22;2271;49.464;11.070;2023-01-08T07:10:20;6.20;99.90
4518;DHT22;2271;49.464;11.070;2023-01-08T07:12:46;6.30;99.90
4518;DHT22;2271;49.464;11.070;2023-01-08T07:15:12;6.30;99.90
4518;DHT22;2271;49.464;11.070;2023-01-08T07:17:38;6.20;99.90
4518;DHT22;2271;49.464;11.070;2023-01-08T07:20:04;6.30;99.90
4518;DHT22;2271;49.464;11.070;2023-01-08T07:22:30;6.30;99.90
4518;DHT22;2271;49.464;11.070;2023-01-08T07:24:55;6.30;99.90
4518;DHT22;2271;49.464;11.070;2023-01-08T07:27:21;6.30;99.90
4518;DHT22;2271;49.464;11.070;2023-01-08T07:29:47;6.30;99.90
4518;DHT22;2271;49.464;11.070;2023-01-08T07:32:12;6.30;99.90
4518;DHT22;2271;49.464;11.070;2023-01-08T07:34:38;6.30;99.90
4518;DHT22;2271;49.464;11.070;2023-01-08T07:37:03;6.30;99.90
4518;DHT22;2271;49.464;11.070;2023-01-08T07:39:29;6.30;99.90
4518;DHT22;2271;49.464;11.070;2023-01-08T07:41:56;6.30;99.90
4518;DHT22;2271;49.464;11.070;2023-01-08T07:44:21;6.30;99.90
4518;DHT22;2271;49.464;11.070;2023-01-08T07:46:47;6.40;99.90
4518;DHT22;2271;49.464;11.070;2023-01-08T07:49:12;6.40;99.90
4518;DHT22;2271;49.464;11.070;2023-01-08T07:51:38;6.40;99.90
4518;DHT22;2271;49.464;11.070;2023-01-08T07:54:04;6.50;99.90
4518;DHT22;2271;49.464;11.070;2023-01-08T07:56:29;6.50;99.90
4518;DHT22;2271;49.464;11.070;2023-01-08T07:58:55;6.50;99.90
4518;DHT22;2271;49.464;11.070;2023-01-08T08:01:21;6.50;99.90
4518;DHT22;2271;49.464;11.070;2023-01-08T08:03:47;6.50;99.90
4518;DHT22;2271;49.464;11.070;2023-01-08T08:06:12;6.60;99.90
4518;DHT22;2271;49.464;11.070;2023-01-08T08:08:38;6.60;99.90
4518;DHT22;2271;49.464;11.070;2023-01-08T08:11:04;6.60;99.90
4518;DHT22;2271;49.464;11.070;2023-01-08T08:13:30;6.60;99.90
4518;DHT22;2271;49.464;11.070;2023-01-08T08:16:00;6.70;99.90
4518;DHT22;2271;49.464;11.070;2023-01-08T08:18:26;6.80;99.90
4518;DHT22;2271;49.464;11.070;2023-01-08T08:20:51;6.80;99.90
4518;DHT22;2271;49.464;11.070;2023-01-08T08:23:17;6.80;99.90
4518;DHT22;2271;49.464;11.070;2023-01-08T08:25:42;6.80;99.90
4518;DHT22;2271;49.464;11.070;2023-01-08T08:28:09;6.80;99.90
4518;DHT22;2271;49.464;11.070;2023-01-08T08:30:36;6.90;99.90
4518;DHT22;2271;49.464;11.070;2023-01-08T08:33:04;6.90;99.90
4518;DHT22;2271;49.464;11.070;2023-01-08T08:35:31;6.90;99.90
4518;DHT22;2271;49.464;11.070;2023-01-08T08:37:57;6.90;99.90
4518;DHT22;2271;49.464;11.070;2023-01-08T08:40:24;7.00;99.90
4518;DHT22;2271;49.464;11.070;2023-01-08T08:42:55;7.10;99.90
4518;DHT22;2271;49.464;11.070;2023-01-08T08:45:20;7.10;99.90
4518;DHT22;2271;49.464;11.070;2023-01-08T08:47:46;7.20;99.90
4518;DHT22;2271;49.464;11.070;2023-01-08T08:50:12;7.20;99.90
4518;DHT22;2271;49.464;11.070;2023-01-08T08:52:37;7.20;99.90
4518;DHT22;2271;49.464;11.070;2023-01-08T08:55:03;7.20;99.90
4518;DHT22;2271;49.464;11.070;2023-01-08T08:57:29;7.20;99.90
4518;DHT22;2271;49.464;11.070;2023-01-08T08:59:54;7.30;99.90
4518;DHT22;2271;49.464;11.070;2023-01-08T09:02:20;7.30;99.90
4518;DHT22;2271;49.464;11.070;2023-01-08T09:04:45;7.30;99.90
4518;DHT22;2271;49.464;11.070;2023-01-08T09:07:11;7.30;99.90
4518;DHT22;2271;49.464;11.070;2023-01-08T09:09:36;7.40;99.90
4518;DHT22;2271;49.464;11.070;2023-01-08T09:12:02;7.50;99.90
4518;DHT22;2271;49.464;11.070;2023-01-08T09:14:28;7.50;99.90
4518;DHT22;2271;49.464;11.070;2023-01-08T09:16:54;7.50;99.90
4518;DHT22;2271;49.464;11.070;2023-01-08T09:19:19;7.50;99.90
4518;DHT22;2271;49.464;11.070;2023-01-08T09:21:45;7.50;99.90
4518;DHT22;2271;49.464;11.070;2023-01-08T09:24:11;7.40;99.90
4518;DHT22;2271;49.464;11.070;2023-01-08T09:26:36;7.30;99.90
4518;DHT22;2271;49.464;11.070;2023-01-08T09:29:02;7.40;99.90
4518;DHT22;2271;49.464;11.070;2023-01-08T09:31:28;7.40;99.90
4518;DHT22;2271;49.464;11.070;2023-01-08T09:33:54;7.40;99.90
4518;DHT22;2271;49.464;11.070;2023-01-08T09:36:19;7.50;99.90
4518;DHT22;2271;49.464;11.070;2023-01-08T09:38:45;7.50;99.90
4518;DHT22;2271;49.464;11.070;2023-01-08T09:41:25;7.60;99.90
4518;DHT22;2271;49.464;11.070;2023-01-08T09:43:54;7.60;99.90
4518;DHT22;2271;49.464;11.070;2023-01-08T09:46:23;7.60;99.90
4518;DHT22;2271;49.464;11.070;2023-01-08T09:48:50;7.70;99.90
4518;DHT22;2271;49.464;11.070;2023-01-08T09:51:18;7.70;99.90
4518;DHT22;2271;49.464;11.070;2023-01-08T09:53:45;7.80;99.90
4518;DHT22;2271;49.464;11.070;2023-01-08T09:56:15;7.80;99.90
4518;DHT22;2271;49.464;11.070;2023-01-08T09:58:55;7.90;99.90
4518;DHT22;2271;49.464;11.070;2023-01-08T10:01:30;7.90;99.90
4518;DHT22;2271;49.464;11.070;2023-01-08T10:04:10;8.00;99.90
4518;DHT22;2271;49.464;11.070;2023-01-08T10:06:39;8.10;99.90
4518;DHT22;2271;49.464;11.070;2023-01-08T10:09:06;8.10;99.90
4518;DHT22;2271;49.464;11.070;2023-01-08T10:11:42;8.20;99.90
4518;DHT22;2271;49.464;11.070;2023-01-08T10:14:35;8.10;99.90
4518;DHT22;2271;49.464;11.070;2023-01-08T10:19:52;8.20;99.90
4518;DHT22;2271;49.464;11.070;2023-01-08T10:22:24;8.20;99.90
4518;DHT22;2271;49.464;11.070;2023-01-08T10:24:51;8.10;99.90
4518;DHT22;2271;49.464;11.070;2023-01-08T10:27:22;8.20;99.90
4518;DHT22;2271;49.464;11.070;2023-01-08T10:29:51;8.20;99.90
4518;DHT22;2271;49.464;11.070;2023-01-08T10:32:29;8.20;99.90
4518;DHT22;2271;49.464;11.070;2023-01-08T10:35:03;8.20;99.90
4518;DHT22;2271;49.464;11.070;2023-01-08T10:37:38;8.10;99.90
4518;DHT22;2271;49.464;11.070;2023-01-08T10:40:39;8.20;99.90
4518;DHT22;2271;49.464;11.070;2023-01-08T10:43:27;8.20;99.90
4518;DHT22;2271;49.464;11.070;2023-01-08T10:46:16;8.20;99.90
4518;DHT22;2271;49.464;11.070;2023-01-08T10:48:53;8.10;99.90
4518;DHT22;2271;49.464;11.070;2023-01-08T10:51:22;8.10;99.90
4518;DHT22;2271;49.464;11.070;2023-01-08T10:53:49;8.10;99.90
4518;DHT22;2271;49.464;11.070;2023-01-08T10:56:18;8.20;99.90
4518;DHT22;2271;49.464;11.070;2023-01-08T10:58:45;8.10;99.90
4518;DHT22;2271;49.464;11.070;2023-01-08T11:03:40;7.90;99.90
4518;DHT22;2271;49.464;11.070;2023-01-08T11:06:16;7.90;99.90
4518;DHT22;2271;49.464;11.070;2023-01-08T11:08:51;7.90;99.90
4518;DHT22;2271;49.464;11.070;2023-01-08T11:11:17;7.90;99.90
4518;DHT22;2271;49.464;11.070;2023-01-08T11:13:58;7.90;99.90
4518;DHT22;2271;49.464;11.070;2023-01-08T11:16:50;7.90;99.90
4518;DHT22;2271;49.464;11.070;2023-01-08T11:19:21;7.90;99.90
4518;DHT22;2271;49.464;11.070;2023-01-08T11:21:56;7.80;99.90
4518;DHT22;2271;49.464;11.070;2023-01-08T11:24:28;7.90;99.90
4518;DHT22;2271;49.464;11.070;2023-01-08T11:27:08;7.90;99.90
4518;DHT22;2271;49.464;11.070;2023-01-08T11:29:48;8.00;99.90
4518;DHT22;2271;49.464;11.070;2023-01-08T11:35:03;8.00;99.90
4518;DHT22;2271;49.464;11.070;2023-01-08T11:37:36;8.10;99.90
4518;DHT22;2271;49.464;11.070;2023-01-08T11:40:14;8.10;99.90
4518;DHT22;2271;49.464;11.070;2023-01-08T11:51:39;8.00;99.90
4518;DHT22;2271;49.464;11.070;2023-01-08T12:10:22;7.60;99.90
4518;DHT22;2271;49.464;11.070;2023-01-08T12:13:04;7.70;99.90
4518;DHT22;2271;49.464;11.070;2023-01-08T12:27:03;7.70;99.90
4518;DHT22;2271;49.464;11.070;2023-01-08T12:32:41;7.80;99.90
4518;DHT22;2271;49.464;11.070;2023-01-08T12:35:21;7.70;99.90
4518;DHT22;2271;49.464;11.070;2023-01-08T12:38:09;7.80;99.90
4518;DHT22;2271;49.464;11.070;2023-01-08T12:40:40;7.80;99.90
4518;DHT22;2271;49.464;11.070;2023-01-08T12:43:30;7.90;99.90
4518;DHT22;2271;49.464;11.070;2023-01-08T12:45:59;7.90;99.90
4518;DHT22;2271;49.464;11.070;2023-01-08T12:48:31;8.00;99.90
4518;DHT22;2271;49.464;11.070;2023-01-08T12:51:18;8.00;99.90
4518;DHT22;2271;49.464;11.070;2023-01-08T12:56:32;8.10;99.90
4518;DHT22;2271;49.464;11.070;2023-01-08T13:04:17;8.20;99.90
4518;DHT22;2271;49.464;11.070;2023-01-08T13:06:58;8.20;99.90
4518;DHT22;2271;49.464;11.070;2023-01-08T13:09:25;8.10;99.90
4518;DHT22;2271;49.464;11.070;2023-01-08T13:11:54;8.20;99.90
4518;DHT22;2271;49.464;11.070;2023-01-08T13:14:21;8.10;99.90
4518;DHT22;2271;49.464;11.070;2023-01-08T13:17:07;8.10;99.90
4518;DHT22;2271;49.464;11.070;2023-01-08T13:19:42;8.10;99.90
4518;DHT22;2271;49.464;11.070;2023-01-08T13:22:24;8.20;99.90
4518;DHT22;2271;49.464;11.070;2023-01-08T13:24:50;8.20;99.90
4518;DHT22;2271;49.464;11.070;2023-01-08T13:29:47;8.20;99.90
4518;DHT22;2271;49.464;11.070;2023-01-08T13:32:45;8.30;99.90
4518;DHT22;2271;49.464;11.070;2023-01-08T13:37:40;8.30;99.90
4518;DHT22;2271;49.464;11.070;2023-01-08T13:43:26;8.30;99.90
4518;DHT22;2271;49.464;11.070;2023-01-08T13:48:38;8.30;99.90
4518;DHT22;2271;49.464;11.070;2023-01-08T13:51:05;8.30;99.90
4518;DHT22;2271;49.464;11.070;2023-01-08T13:53:31;8.20;99.90
4518;DHT22;2271;49.464;11.070;2023-01-08T13:56:04;8.20;99.90
4518;DHT22;2271;49.464;11.070;2023-01-08T13:58:41;8.30;99.90
4518;DHT22;2271;49.464;11.070;2023-01-08T14:01:09;8.30;99.90
4518;DHT22;2271;49.464;11.070;2023-01-08T14:03:37;8.40;99.90
4518;DHT22;2271;49.464;11.070;2023-01-08T14:06:18;8.40;99.90
4518;DHT22;2271;49.464;11.070;2023-01-08T14:09:00;8.40;99.90
4518;DHT22;2271;49.464;11.070;2023-01-08T14:14:00;8.60;99.90
4518;DHT22;2271;49.464;11.070;2023-01-08T14:16:26;8.60;99.90
4518;DHT22;2271;49.464;11.070;2023-01-08T14:18:55;8.60;99.90
4518;DHT22;2271;49.464;11.070;2023-01-08T14:21:22;8.60;99.90
4518;DHT22;2271;49.464;11.070;2023-01-08T14:23:50;8.60;99.90
4518;DHT22;2271;49.464;11.070;2023-01-08T14:26:35;8.50;99.90
4518;DHT22;2271;49.464;11.070;2023-01-08T14:29:03;8.40;99.90
4518;DHT22;2271;49.464;11.070;2023-01-08T14:31:29;8.30;99.90
4518;DHT22;2271;49.464;11.070;2023-01-08T14:33:57;8.20;99.90
4518;DHT22;2271;49.464;11.070;2023-01-08T14:36:23;8.20;99.90
4518;DHT22;2271;49.464;11.070;2023-01-08T14:38:50;8.10;99.90
4518;DHT22;2271;49.464;11.070;2023-01-08T14:41:32;8.10;99.90
4518;DHT22;2271;49.464;11.070;2023-01-08T14:44:19;8.10;99.90
4518;DHT22;2271;49.464;11.070;2023-01-08T14:46:45;8.10;99.90
4518;DHT22;2271;49.464;11.070;2023-01-08T14:49:26;8.10;99.90
4518;DHT22;2271;49.464;11.070;2023-01-08T14:51:53;8.00;99.90
4518;DHT22;2271;49.464;11.070;2023-01-08T14:54:29;8.00;99.90
4518;DHT22;2271;49.464;11.070;2023-01-08T14:56:56;8.00;99.90
4518;DHT22;2271;49.464;11.070;2023-01-08T14:59:28;8.10;99.90
4518;DHT22;2271;49.464;11.070;2023-01-08T15:01:57;8.10;99.90
4518;DHT22;2271;49.464;11.070;2023-01-08T15:04:24;8.10;99.90
4518;DHT22;2271;49.464;11.070;2023-01-08T15:06:51;8.10;99.90
4518;DHT22;2271;49.464;11.070;2023-01-08T15:09:21;8.10;99.90
4518;DHT22;2271;49.464;11.070;2023-01-08T15:11:52;8.20;99.90
4518;DHT22;2271;49.464;11.070;2023-01-08T15:14:25;8.20;99.90
4518;DHT22;2271;49.464;11.070;2023-01-08T15:16:53;8.10;99.90
4518;DHT22;2271;49.464;11.070;2023-01-08T15:19:25;8.10;99.90
4518;DHT22;2271;49.464;11.070;2023-01-08T15:21:56;8.10;99.90
4518;DHT22;2271;49.464;11.070;2023-01-08T15:26:55;8.10;99.90
4518;DHT22;2271;49.464;11.070;2023-01-08T15:29:31;8.00;99.90
4518;DHT22;2271;49.464;11.070;2023-01-08T15:32:20;8.00;99.90
4518;DHT22;2271;49.464;11.070;2023-01-08T15:34:46;8.00;99.90
4518;DHT22;2271;49.464;11.070;2023-01-08T15:37:13;8.10;99.90
4518;DHT22;2271;49.464;11.070;2023-01-08T15:39:39;8.10;99.90
4518;DHT22;2271;49.464;11.070;2023-01-08T15:42:28;8.10;99.90
4518;DHT22;2271;49.464;11.070;2023-01-08T15:45:15;8.10;99.90
4518;DHT22;2271;49.464;11.070;2023-01-08T15:47:41;8.10;99.90
4518;DHT22;2271;49.464;11.070;2023-01-08T15:52:39;8.10;99.90
4518;DHT22;2271;49.464;11.070;2023-01-08T15:55:08;8.10;99.90
4518;DHT22;2271;49.464;11.070;2023-01-08T15:57:34;8.10;99.90
4518;DHT22;2271;49.464;11.070;2023-01-08T16:00:00;8.10;99.90
4518;DHT22;2271;49.464;11.070;2023-01-08T16:02:26;8.10;99.90
4518;DHT22;2271;49.464;11.070;2023-01-08T16:04:53;8.10;99.90
4518;DHT22;2271;49.464;11.070;2023-01-08T16:07:19;8.10;99.90
4518;DHT22;2271;49.464;11.070;2023-01-08T16:09:45;8.10;99.90
4518;DHT22;2271;49.464;11.070;2023-01-08T16:12:11;8.10;99.90
4518;DHT22;2271;49.464;11.070;2023-01-08T16:14:36;8.00;99.90
4518;DHT22;2271;49.464;11.070;2023-01-08T16:17:06;8.00;99.90
4518;DHT22;2271;49.464;11.070;2023-01-08T16:19:32;8.00;99.90
4518;DHT22;2271;49.464;11.070;2023-01-08T16:21:58;8.00;99.90
4518;DHT22;2271;49.464;11.070;2023-01-08T16:24:24;8.00;99.90
4518;DHT22;2271;49.464;11.070;2023-01-08T16:26:50;8.00;99.90
4518;DHT22;2271;49.464;11.070;2023-01-08T16:29:16;8.00;99.90
4518;DHT22;2271;49.464;11.070;2023-01-08T16:31:45;8.00;99.90
4518;DHT22;2271;49.464;11.070;2023-01-08T16:34:11;8.00;99.90
4518;DHT22;2271;49.464;11.070;2023-01-08T16:36:37;8.00;99.90
4518;DHT22;2271;49.464;11.070;2023-01-08T16:39:04;8.00;99.90
4518;DHT22;2271;49.464;11.070;2023-01-08T16:41:29;7.90;99.90
4518;DHT22;2271;49.464;11.070;2023-01-08T16:43:55;7.90;99.90
4518;DHT22;2271;49.464;11.070;2023-01-08T16:46:21;7.90;99.90
4518;DHT22;2271;49.464;11.070;2023-01-08T16:48:47;7.90;99.90
4518;DHT22;2271;49.464;11.070;2023-01-08T16:51:13;7.90;99.90
4518;DHT22;2271;49.464;11.070;2023-01-08T16:53:40;8.00;99.90
4518;DHT22;2271;49.464;11.070;2023-01-08T16:56:06;8.00;99.90
4518;DHT22;2271;49.464;11.070;2023-01-08T16:58:31;8.00;99.90
4518;DHT22;2271;49.464;11.070;2023-01-08T17:00:59;8.00;99.90
4518;DHT22;2271;49.464;11.070;2023-01-08T17:03:26;8.10;99.90
4518;DHT22;2271;49.464;11.070;2023-01-08T17:05:51;8.10;99.90
4518;DHT22;2271;49.464;11.070;2023-01-08T17:08:17;8.10;99.90
4518;DHT22;2271;49.464;11.070;2023-01-08T17:10:45;8.10;99.90
4518;DHT22;2271;49.464;11.070;2023-01-08T17:13:11;8.10;99.90
4518;DHT22;2271;49.464;11.070;2023-01-08T17:15:37;8.10;99.90
4518;DHT22;2271;49.464;11.070;2023-01-08T17:18:04;8.00;99.90
4518;DHT22;2271;49.464;11.070;2023-01-08T17:20:29;7.90;99.90
4518;DHT22;2271;49.464;11.070;2023-01-08T17:22:56;7.90;99.90
4518;DHT22;2271;49.464;11.070;2023-01-08T17:25:22;7.90;99.90
4518;DHT22;2271;49.464;11.070;2023-01-08T17:27:48;7.80;99.90
4518;DHT22;2271;49.464;11.070;2023-01-08T17:30:14;7.80;99.90
4518;DHT22;2271;49.464;11.070;2023-01-08T17:32:40;7.80;99.90
4518;DHT22;2271;49.464;11.070;2023-01-08T17:35:06;7.70;99.90
4518;DHT22;2271;49.464;11.070;2023-01-08T17:37:32;7.80;99.90
4518;DHT22;2271;49.464;11.070;2023-01-08T17:39:58;7.80;99.90
4518;DHT22;2271;49.464;11.070;2023-01-08T17:42:25;7.80;99.90
4518;DHT22;2271;49.464;11.070;2023-01-08T17:44:57;7.80;99.90
4518;DHT22;2271;49.464;11.070;2023-01-08T17:47:24;7.90;99.90